Time;durP1;ratioP1;P1;durP2;ratioP2;P2;SDS_P1;SDS_P2;PMS_P1;PMS_P2;Temp;Humidity;BMP_temperature;BMP_pressure;BME280_temperature;BME280_humidity;BME280_pressure;Samples;Min_cycle;Max_cycle;Signal;HPM_P1;HPM_P2
2022/05/07 00:00:43;;;;;;;16.93;15.33;;;17.60;91.00;;;;;;4847524;29;21196;-80
2022/05/07 00:03:10;;;;;;;19.07;17.17;;;17.50;91.40;;;;;;4839963;29;20570;-84
2022/05/07 00:05:37;;;;;;;18.90;17.03;;;17.60;91.10;;;;;;4844540;29;20507;-82
2022/05/07 00:08:05;;;;;;;18.27;16.57;;;17.40;90.90;;;;;;4831529;29;20447;-84
2022/05/07 00:10:32;;;;;;;19.90;18.00;;;17.30;91.20;;;;;;4840042;29;20987;-83
2022/05/07 00:12:59;;;;;;;19.23;17.50;;;17.00;91.00;;;;;;4860305;29;20474;-83
2022/05/07 00:15:26;;;;;;;19.53;17.83;;;16.90;91.30;;;;;;4837378;29;20475;-81
2022/05/07 00:18:02;;;;;;;19.27;17.27;;;16.80;91.20;;;;;;4847290;29;20458;-82
2022/05/07 00:20:33;;;;;;;19.50;17.60;;;16.80;91.40;;;;;;4841369;29;20533;-83
2022/05/07 00:23:00;;;;;;;20.00;18.20;;;16.80;91.40;;;;;;4843571;29;20476;-83
2022/05/07 00:25:30;;;;;;;20.67;18.77;;;16.70;91.60;;;;;;4847638;29;20464;-81
2022/05/07 00:28:05;;;;;;;18.87;17.07;;;16.80;91.90;;;;;;4860838;29;20465;-84
2022/05/07 00:30:34;;;;;;;19.03;17.40;;;16.70;91.90;;;;;;4857072;29;20461;-83
2022/05/07 00:33:04;;;;;;;20.50;18.50;;;16.70;92.20;;;;;;4858240;29;20553;-84
2022/05/07 00:35:36;;;;;;;21.40;19.20;;;16.70;92.30;;;;;;4845711;29;20486;-83
2022/05/07 00:38:12;;;;;;;20.53;18.43;;;16.70;92.20;;;;;;4847184;29;20440;-84
2022/05/07 00:40:39;;;;;;;20.37;17.93;;;16.50;92.10;;;;;;4838617;29;20477;-82
2022/05/07 00:43:15;;;;;;;19.90;17.93;;;16.30;92.40;;;;;;4843980;29;20482;-83
2022/05/07 00:45:44;;;;;;;20.50;18.60;;;16.20;92.70;;;;;;4850492;29;20519;-83
2022/05/07 00:48:15;;;;;;;21.33;19.17;;;16.40;92.40;;;;;;4850056;29;20477;-83
2022/05/07 00:53:31;;;;;;;19.90;18.00;;;16.20;92.50;;;;;;4848345;29;20478;-84
2022/05/07 00:55:58;;;;;;;22.40;20.00;;;16.30;92.40;;;;;;4847538;29;20562;-85
2022/05/07 00:58:27;;;;;;;20.80;18.90;;;16.40;92.20;;;;;;4840549;29;20582;-84
2022/05/07 01:00:57;;;;;;;22.30;19.00;;;16.40;92.40;;;;;;4853859;29;20443;-83
2022/05/07 01:03:24;;;;;;;22.03;19.90;;;16.40;92.40;;;;;;4860339;29;20533;-85
2022/05/07 01:05:51;;;;;;;21.87;19.77;;;16.20;92.60;;;;;;4858991;29;20534;-84
2022/05/07 01:08:20;;;;;;;22.77;20.03;;;16.10;93.00;;;;;;4851404;29;20455;-86
2022/05/07 01:10:48;;;;;;;22.20;19.93;;;16.20;93.40;;;;;;4863261;29;20464;-86
2022/05/07 01:13:15;;;;;;;20.27;18.53;;;16.30;93.30;;;;;;4847522;29;20476;-85
2022/05/07 01:15:46;;;;;;;22.47;20.10;;;16.30;93.50;;;;;;4847788;29;20454;-85
2022/05/07 01:18:13;;;;;;;20.40;18.60;;;16.30;94.00;;;;;;4847676;29;20472;-85
2022/05/07 01:20:40;;;;;;;21.33;19.33;;;16.20;93.70;;;;;;4848186;29;20451;-85
2022/05/07 01:23:08;;;;;;;22.53;20.43;;;16.20;93.90;;;;;;4847810;29;20483;-85
2022/05/07 01:25:35;;;;;;;21.80;19.80;;;16.50;93.60;;;;;;4844051;29;20458;-83
2022/05/07 01:28:02;;;;;;;22.13;20.17;;;16.40;93.60;;;;;;4848963;29;20477;-82
2022/05/07 01:30:29;;;;;;;21.70;19.70;;;16.30;93.70;;;;;;4856857;29;20446;-83
2022/05/07 01:32:56;;;;;;;20.93;19.00;;;16.30;94.20;;;;;;4862260;29;20456;-83
2022/05/07 01:35:24;;;;;;;22.10;19.80;;;16.30;94.20;;;;;;4863012;29;20450;-81
2022/05/07 01:37:51;;;;;;;22.53;20.20;;;16.10;94.50;;;;;;4850125;29;21003;-80
2022/05/07 01:40:18;;;;;;;23.27;21.07;;;16.10;94.90;;;;;;4857521;29;20451;-85
2022/05/07 01:42:45;;;;;;;23.80;21.40;;;16.20;94.80;;;;;;4851411;29;20469;-84
2022/05/07 01:45:11;;;;;;;21.90;19.90;;;16.10;94.80;;;;;;4852840;29;20458;-84
2022/05/07 01:50:25;;;;;;;23.17;21.07;;;16.10;95.10;;;;;;4851926;29;20495;-84
2022/05/07 01:52:52;;;;;;;23.57;21.47;;;16.20;94.70;;;;;;4850549;29;20480;-83
2022/05/07 01:55:19;;;;;;;21.57;19.67;;;16.10;94.80;;;;;;4850313;29;20478;-85
2022/05/07 01:57:46;;;;;;;22.00;19.70;;;16.00;94.80;;;;;;4849831;29;20479;-83
2022/05/07 02:00:13;;;;;;;21.40;19.40;;;15.90;94.40;;;;;;4849707;29;20451;-84
2022/05/07 02:02:39;;;;;;;21.60;19.60;;;15.70;94.50;;;;;;4849079;29;20487;-87
2022/05/07 02:05:07;;;;;;;19.10;17.40;;;15.80;94.30;;;;;;4858765;29;20470;-83
2022/05/07 02:07:34;;;;;;;23.20;20.80;;;15.70;94.20;;;;;;4839725;29;20462;-83
2022/05/07 02:10:01;;;;;;;24.03;21.73;;;15.70;94.10;;;;;;4839644;29;20989;-84
2022/05/07 02:12:29;;;;;;;21.53;19.53;;;15.70;93.80;;;;;;4841861;29;20474;-84
2022/05/07 02:14:56;;;;;;;24.20;21.80;;;15.50;94.10;;;;;;4861278;29;20517;-83
2022/05/07 02:17:23;;;;;;;24.40;21.87;;;15.50;94.30;;;;;;4854403;29;20485;-83
2022/05/07 02:19:49;;;;;;;21.97;19.97;;;15.40;94.30;;;;;;4843661;29;20490;-83
2022/05/07 02:22:16;;;;;;;21.53;19.47;;;15.40;94.40;;;;;;4848559;29;20502;-82
2022/05/07 02:24:43;;;;;;;23.60;21.33;;;15.40;94.50;;;;;;4855756;29;20460;-84
2022/05/07 02:27:09;;;;;;;22.87;20.57;;;15.20;94.50;;;;;;4847788;29;20458;-85
2022/05/07 02:29:39;;;;;;;24.27;20.60;;;15.20;94.70;;;;;;4851109;29;20465;-84
2022/05/07 02:32:06;;;;;;;23.23;21.10;;;15.30;94.60;;;;;;4842703;29;20477;-83
2022/05/07 02:34:34;;;;;;;21.57;19.63;;;15.30;94.40;;;;;;4843626;29;20462;-85
2022/05/07 02:37:02;;;;;;;21.37;19.43;;;15.30;94.60;;;;;;4858446;29;20467;-84
2022/05/07 02:39:29;;;;;;;22.50;20.40;;;15.40;94.70;;;;;;4857592;29;20468;-84
2022/05/07 02:44:41;;;;;;;21.87;19.87;;;15.30;95.00;;;;;;4863530;29;20498;-86
2022/05/07 02:47:08;;;;;;;22.77;20.63;;;15.20;95.50;;;;;;4862371;29;20514;-84
2022/05/07 02:49:35;;;;;;;24.03;20.93;;;15.10;95.50;;;;;;4860891;29;20537;-83
2022/05/07 02:52:02;;;;;;;22.73;20.73;;;15.10;95.70;;;;;;4845644;29;20455;-82
2022/05/07 02:54:29;;;;;;;21.70;19.80;;;15.20;95.70;;;;;;4830897;29;20462;-83
2022/05/07 02:56:56;;;;;;;22.00;20.00;;;15.40;95.80;;;;;;4833283;29;20488;-81
2022/05/07 02:59:23;;;;;;;23.00;20.87;;;15.40;95.90;;;;;;4839961;29;20467;-83
2022/05/07 03:01:50;;;;;;;26.23;23.87;;;15.30;95.80;;;;;;4841006;29;20463;-83
2022/05/07 03:04:19;;;;;;;25.80;23.40;;;15.20;96.10;;;;;;4844438;29;20494;-83
2022/05/07 03:06:46;;;;;;;26.47;23.87;;;15.10;96.40;;;;;;4854244;29;20462;-83
2022/05/07 03:09:13;;;;;;;25.57;23.17;;;15.00;96.70;;;;;;4859243;29;20468;-85
2022/05/07 03:11:40;;;;;;;26.37;23.87;;;14.90;96.90;;;;;;4833810;29;20451;-85
2022/05/07 03:14:06;;;;;;;27.40;24.63;;;14.90;97.20;;;;;;4838873;29;21012;-83
2022/05/07 03:16:38;;;;;;;26.33;23.83;;;14.90;97.10;;;;;;4860184;29;20916;-84
2022/05/07 03:19:06;;;;;;;26.90;24.33;;;14.80;97.20;;;;;;4841588;29;20487;-83
2022/05/07 03:21:33;;;;;;;25.40;23.03;;;14.90;97.20;;;;;;4833922;29;20466;-83
2022/05/07 03:24:00;;;;;;;23.40;21.00;;;14.70;97.30;;;;;;4840570;29;20487;-83
2022/05/07 03:26:27;;;;;;;24.30;22.10;;;14.60;97.60;;;;;;4852475;29;20462;-83
2022/05/07 03:28:54;;;;;;;24.63;22.33;;;14.90;97.50;;;;;;4845317;29;20455;-83
2022/05/07 03:31:21;;;;;;;25.33;23.00;;;14.90;97.20;;;;;;4845012;29;20535;-84
2022/05/07 03:33:48;;;;;;;24.13;21.93;;;14.90;97.20;;;;;;4848201;29;20476;-84
2022/05/07 03:36:15;;;;;;;23.53;21.40;;;14.90;97.00;;;;;;4846599;29;20465;-85
2022/05/07 03:38:42;;;;;;;23.70;21.67;;;14.80;97.10;;;;;;4854398;29;20466;-85
2022/05/07 03:41:09;;;;;;;25.27;22.90;;;14.90;97.10;;;;;;4852178;29;20462;-83
2022/05/07 03:43:40;;;;;;;25.93;23.53;;;14.90;97.10;;;;;;4843642;29;20558;-82
2022/05/07 03:46:08;;;;;;;26.40;23.90;;;14.90;97.20;;;;;;4839695;29;20466;-83
2022/05/07 03:48:35;;;;;;;27.50;24.90;;;14.80;97.10;;;;;;4841740;29;20906;-83
2022/05/07 03:51:02;;;;;;;28.93;26.23;;;14.60;97.30;;;;;;4840503;29;20469;-82
2022/05/07 03:53:29;;;;;;;27.37;24.87;;;14.30;97.60;;;;;;4846447;29;20890;-83
2022/05/07 03:56:01;;;;;;;29.10;26.17;;;14.30;98.10;;;;;;4839676;29;20459;-83
2022/05/07 03:58:29;;;;;;;28.17;25.13;;;14.20;98.40;;;;;;4849690;29;20593;-82
2022/05/07 04:00:57;;;;;;;31.17;25.60;;;14.10;98.50;;;;;;4842130;29;20902;-84
2022/05/07 04:03:25;;;;;;;27.57;24.97;;;14.00;98.80;;;;;;4835838;29;20570;-82
2022/05/07 04:05:53;;;;;;;26.97;24.20;;;13.90;98.90;;;;;;4835926;29;20467;-83
2022/05/07 04:08:20;;;;;;;27.70;25.00;;;13.80;99.00;;;;;;4833518;29;20474;-81
2022/05/07 04:10:47;;;;;;;28.53;25.93;;;13.90;99.40;;;;;;4847184;29;20462;-81
2022/05/07 04:13:15;;;;;;;29.67;26.57;;;13.80;99.20;;;;;;4837451;29;20494;-82
2022/05/07 04:15:43;;;;;;;28.33;25.40;;;13.80;99.40;;;;;;4835584;29;20459;-82
2022/05/07 04:18:10;;;;;;;29.57;26.13;;;13.80;99.50;;;;;;4859796;29;20498;-80
2022/05/07 04:20:38;;;;;;;27.20;24.40;;;13.70;99.60;;;;;;4837241;29;20459;-82
2022/05/07 04:23:05;;;;;;;27.20;24.67;;;13.70;99.70;;;;;;4836332;29;20512;-83
2022/05/07 04:25:38;;;;;;;28.67;25.93;;;13.70;99.70;;;;;;4847288;29;20457;-84
2022/05/07 04:28:04;;;;;;;27.67;24.97;;;13.70;99.60;;;;;;4837918;29;20459;-84
2022/05/07 04:30:31;;;;;;;29.27;26.37;;;13.60;99.50;;;;;;4845383;29;20465;-82
2022/05/07 04:32:58;;;;;;;29.53;26.83;;;13.60;99.70;;;;;;4844488;29;20565;-83
2022/05/07 04:35:25;;;;;;;29.13;26.13;;;13.50;99.90;;;;;;4844685;29;20450;-83
2022/05/07 04:37:51;;;;;;;28.57;25.93;;;13.40;99.90;;;;;;4844776;29;20487;-83
2022/05/07 04:40:18;;;;;;;29.37;26.60;;;13.40;99.90;;;;;;4832595;29;20455;-83
2022/05/07 04:42:45;;;;;;;29.63;26.43;;;13.30;99.90;;;;;;4836181;29;20479;-84
2022/05/07 04:45:13;;;;;;;28.67;25.80;;;13.40;99.90;;;;;;4845890;29;20983;-82
2022/05/07 04:47:40;;;;;;;27.97;25.07;;;13.40;99.90;;;;;;4836602;29;20470;-83
2022/05/07 04:50:07;;;;;;;28.60;25.60;;;13.50;99.90;;;;;;4840343;29;20466;-84
2022/05/07 04:52:33;;;;;;;28.10;25.40;;;13.50;99.90;;;;;;4851191;29;20490;-83
2022/05/07 04:55:02;;;;;;;27.60;24.90;;;13.60;99.90;;;;;;4840209;29;20826;-84
2022/05/07 04:57:29;;;;;;;28.10;25.30;;;13.70;99.90;;;;;;4845862;29;20903;-83
2022/05/07 04:59:59;;;;;;;28.60;24.67;;;13.80;99.70;;;;;;4844954;29;20469;-84
2022/05/07 05:02:26;;;;;;;27.17;24.40;;;13.80;99.60;;;;;;4835147;29;20490;-83
2022/05/07 05:04:53;;;;;;;27.07;24.60;;;13.70;99.30;;;;;;4845013;29;20824;-83
2022/05/07 05:07:19;;;;;;;27.27;24.57;;;13.80;98.70;;;;;;4848443;29;20469;-85
2022/05/07 05:09:46;;;;;;;29.23;26.33;;;13.80;98.60;;;;;;4847222;29;20956;-81
2022/05/07 05:12:13;;;;;;;27.17;24.40;;;13.80;98.80;;;;;;4841853;29;20458;-82
2022/05/07 05:17:25;;;;;;;27.63;24.93;;;13.80;98.80;;;;;;4832499;29;20896;-83
2022/05/07 05:19:52;;;;;;;27.10;24.43;;;13.80;98.90;;;;;;4830500;29;20486;-83
2022/05/07 05:22:19;;;;;;;27.80;24.80;;;14.10;98.80;;;;;;4846047;29;20487;-83
2022/05/07 05:24:45;;;;;;;27.20;24.40;;;14.20;98.20;;;;;;4840699;29;20454;-83
2022/05/07 05:27:12;;;;;;;27.83;25.33;;;14.30;97.80;;;;;;4841625;29;20480;-83
2022/05/07 05:29:39;;;;;;;26.50;23.80;;;14.40;97.40;;;;;;4845461;29;20465;-83
2022/05/07 05:32:06;;;;;;;28.17;25.47;;;14.30;97.40;;;;;;4834365;29;20960;-84
2022/05/07 05:34:33;;;;;;;28.00;25.33;;;14.40;97.50;;;;;;4840949;29;20881;-84
2022/05/07 05:36:59;;;;;;;27.63;24.97;;;14.30;97.60;;;;;;4836909;29;20493;-84
2022/05/07 05:39:27;;;;;;;27.87;25.17;;;14.40;97.50;;;;;;4837993;29;20454;-84
2022/05/07 05:41:53;;;;;;;28.57;25.87;;;14.50;97.40;;;;;;4835272;29;20997;-82
2022/05/07 05:44:20;;;;;;;28.57;25.53;;;14.40;97.40;;;;;;4834356;29;20484;-84
2022/05/07 05:46:46;;;;;;;29.00;26.07;;;14.40;97.40;;;;;;4843578;29;20466;-83
2022/05/07 05:49:13;;;;;;;28.10;25.43;;;14.40;97.40;;;;;;4847471;29;20458;-83
2022/05/07 05:51:40;;;;;;;27.30;24.80;;;14.40;97.60;;;;;;4844164;29;20469;-83
2022/05/07 05:54:06;;;;;;;28.17;25.50;;;14.40;97.50;;;;;;4837665;29;20486;-83
2022/05/07 05:56:33;;;;;;;27.70;24.83;;;14.40;97.40;;;;;;4839966;29;21197;-83
2022/05/07 05:59:00;;;;;;;28.23;25.63;;;14.40;96.90;;;;;;4855287;29;20498;-82
2022/05/07 06:01:26;;;;;;;28.10;25.30;;;14.50;97.10;;;;;;4846065;29;20466;-81
2022/05/07 06:03:53;;;;;;;27.73;25.20;;;14.50;97.10;;;;;;4844484;29;20490;-83
2022/05/07 06:06:22;;;;;;;26.70;24.10;;;14.50;97.10;;;;;;4850401;29;20466;-85
2022/05/07 06:08:49;;;;;;;25.53;23.07;;;14.50;97.20;;;;;;4833513;29;21078;-82
2022/05/07 06:11:16;;;;;;;26.20;23.80;;;14.50;97.00;;;;;;4839426;29;20508;-84
2022/05/07 06:13:43;;;;;;;26.90;24.23;;;15.00;96.50;;;;;;4834102;29;20487;-83
2022/05/07 06:16:10;;;;;;;28.77;24.23;;;15.20;95.80;;;;;;4837585;29;20482;-83
2022/05/07 06:18:37;;;;;;;28.23;25.60;;;15.30;95.70;;;;;;4842567;29;20588;-83
2022/05/07 06:21:04;;;;;;;26.60;24.20;;;15.60;95.20;;;;;;4831929;29;20466;-83
2022/05/07 06:23:31;;;;;;;26.80;24.43;;;15.50;95.00;;;;;;4845668;29;20478;-84
2022/05/07 06:28:44;;;;;;;26.70;24.00;;;15.60;94.60;;;;;;4838195;29;20466;-82
2022/05/07 06:31:10;;;;;;;23.93;21.63;;;15.90;94.40;;;;;;4838401;29;20454;-85
2022/05/07 06:33:40;;;;;;;25.03;22.57;;;16.10;93.90;;;;;;4837311;29;20487;-82
2022/05/07 06:36:07;;;;;;;23.80;21.63;;;16.20;93.10;;;;;;4846148;29;20454;-84
2022/05/07 06:38:35;;;;;;;24.23;22.03;;;16.00;93.10;;;;;;4845323;29;20516;-84
2022/05/07 06:41:03;;;;;;;23.23;21.13;;;16.10;93.10;;;;;;4847685;29;20848;-83
2022/05/07 06:43:31;;;;;;;24.30;22.10;;;16.10;93.00;;;;;;4845975;29;20481;-83
2022/05/07 06:46:01;;;;;;;25.63;23.30;;;16.30;92.50;;;;;;4848934;29;20864;-83
2022/05/07 06:48:28;;;;;;;25.47;23.23;;;16.30;92.30;;;;;;4846513;29;20545;-83
2022/05/07 06:50:55;;;;;;;23.53;21.37;;;16.40;92.40;;;;;;4842113;29;20446;-83
2022/05/07 06:53:23;;;;;;;23.77;21.50;;;16.30;92.00;;;;;;4852061;29;20482;-86
2022/05/07 06:55:56;;;;;;;25.53;22.97;;;16.70;91.80;;;;;;4851708;29;20481;-83
2022/05/07 06:58:24;;;;;;;25.23;22.83;;;16.70;91.40;;;;;;4844119;29;20486;-84
2022/05/07 07:00:57;;;;;;;23.93;21.60;;;16.60;91.40;;;;;;4858171;29;20447;-83
2022/05/07 07:03:25;;;;;;;25.33;23.03;;;16.70;91.40;;;;;;4843791;29;20501;-84
2022/05/07 07:05:53;;;;;;;25.37;22.97;;;16.60;91.30;;;;;;4849926;29;20557;-84
2022/05/07 07:08:25;;;;;;;25.03;22.43;;;16.80;91.40;;;;;;4849223;29;20508;-84
2022/05/07 07:10:52;;;;;;;25.07;22.50;;;17.20;91.10;;;;;;4831297;29;20474;-85
2022/05/07 07:13:20;;;;;;;24.57;21.90;;;17.30;90.50;;;;;;4849877;29;20478;-84
2022/05/07 07:15:48;;;;;;;24.83;22.47;;;17.60;90.40;;;;;;4851411;29;20473;-85
2022/05/07 07:18:15;;;;;;;23.33;20.97;;;17.80;89.90;;;;;;4837298;29;20486;-84
2022/05/07 07:20:44;;;;;;;23.50;21.23;;;18.10;88.20;;;;;;4842231;29;20458;-84
2022/05/07 07:23:11;;;;;;;23.40;21.23;;;18.20;86.90;;;;;;4838790;29;20479;-86
2022/05/07 07:25:39;;;;;;;22.30;20.23;;;18.10;86.50;;;;;;4852187;29;20547;-84
2022/05/07 07:28:10;;;;;;;23.67;21.33;;;18.50;86.50;;;;;;4854766;29;20465;-83
2022/05/07 07:30:38;;;;;;;22.00;20.10;;;18.80;84.70;;;;;;4854822;29;20495;-83
2022/05/07 07:33:05;;;;;;;23.57;21.10;;;18.70;84.20;;;;;;4845641;29;20483;-84
2022/05/07 07:35:32;;;;;;;22.37;20.03;;;19.10;83.00;;;;;;4845126;29;20470;-83
2022/05/07 07:37:58;;;;;;;23.60;21.50;;;19.70;80.20;;;;;;4845439;29;20490;-87
2022/05/07 07:40:25;;;;;;;23.60;21.50;;;20.30;78.30;;;;;;4848713;29;20458;-85
2022/05/07 07:42:52;;;;;;;22.40;20.20;;;20.60;75.70;;;;;;4853691;29;20557;-83
2022/05/07 07:48:04;;;;;;;20.30;18.30;;;21.80;69.70;;;;;;4837688;29;20458;-84
2022/05/07 07:50:34;;;;;;;20.53;18.47;;;22.30;66.60;;;;;;4843608;29;20954;-83
2022/05/07 07:53:02;;;;;;;19.40;17.50;;;23.00;64.30;;;;;;4839374;29;20475;-85
2022/05/07 07:55:29;;;;;;;18.10;16.40;;;23.70;60.40;;;;;;4833436;29;20459;-83
2022/05/07 07:57:58;;;;;;;21.37;19.23;;;24.20;59.20;;;;;;4846624;29;20549;-82
2022/05/07 08:00:26;;;;;;;20.90;18.87;;;24.40;58.00;;;;;;4844644;29;20451;-86
2022/05/07 08:02:55;;;;;;;19.83;17.00;;;24.10;57.70;;;;;;4839361;29;20531;-82
2022/05/07 08:05:25;;;;;;;20.37;18.00;;;24.30;56.70;;;;;;4846127;29;20463;-84
2022/05/07 08:13:30;;;;;;;18.57;16.90;;;26.60;52.70;;;;;;4834244;29;20501;-83
2022/05/07 08:15:57;;;;;;;17.67;16.07;;;27.00;51.50;;;;;;4848117;29;20957;-84
2022/05/07 08:18:24;;;;;;;17.67;15.80;;;27.00;50.80;;;;;;4840906;29;20522;-83
2022/05/07 08:20:51;;;;;;;16.63;14.67;;;27.50;49.80;;;;;;4846563;29;20470;-83
2022/05/07 08:23:20;;;;;;;16.80;15.10;;;27.60;48.30;;;;;;4835836;29;20493;-84
2022/05/07 08:25:52;;;;;;;17.50;15.70;;;27.70;47.80;;;;;;4847051;29;20461;-85
2022/05/07 08:28:27;;;;;;;17.53;15.77;;;27.30;47.20;;;;;;4856313;29;20534;-84
2022/05/07 08:30:57;;;;;;;16.00;14.60;;;27.20;47.70;;;;;;4844000;29;20457;-84
2022/05/07 08:33:27;;;;;;;18.07;16.30;;;27.50;46.80;;;;;;4833866;29;21012;-83
2022/05/07 08:36:01;;;;;;;15.30;13.33;;;27.20;46.80;;;;;;4832307;29;20450;-83
2022/05/07 08:38:30;;;;;;;16.37;14.87;;;27.50;47.00;;;;;;4841821;29;20551;-84
2022/05/07 08:41:04;;;;;;;17.30;15.70;;;27.80;46.20;;;;;;4837048;29;20446;-84
2022/05/07 08:43:37;;;;;;;18.00;16.20;;;27.80;46.50;;;;;;4849570;29;20927;-84
2022/05/07 08:46:12;;;;;;;16.03;13.93;;;27.50;46.30;;;;;;4837458;29;20459;-83
2022/05/07 08:48:51;;;;;;;16.43;14.93;;;27.30;46.50;;;;;;4845455;29;20475;-84
2022/05/07 08:51:22;;;;;;;15.90;14.23;;;26.70;47.00;;;;;;4839899;29;20447;-84
2022/05/07 08:53:53;;;;;;;17.73;14.13;;;26.70;47.30;;;;;;4838805;29;20485;-81
2022/05/07 08:56:28;;;;;;;16.00;14.30;;;26.60;47.00;;;;;;4839015;29;20462;-84
2022/05/07 08:58:57;;;;;;;16.77;14.97;;;26.70;47.10;;;;;;4840546;29;20495;-84
2022/05/07 09:01:31;;;;;;;16.40;14.80;;;26.60;47.50;;;;;;4834821;29;20451;-83
2022/05/07 09:04:17;;;;;;;16.50;14.83;;;26.20;47.70;;;;;;4847473;29;20475;-83
2022/05/07 09:07:05;;;;;;;16.93;15.20;;;26.20;48.20;;;;;;4839544;29;21020;-84
2022/05/07 09:09:32;;;;;;;17.30;15.27;;;26.10;48.30;;;;;;4843824;29;20469;-85
2022/05/07 09:12:07;;;;;;;17.10;15.20;;;26.70;48.20;;;;;;4844452;29;20447;-83
2022/05/07 09:14:34;;;;;;;16.90;15.30;;;26.90;47.10;;;;;;4855930;29;20445;-84
2022/05/07 09:17:01;;;;;;;17.00;15.20;;;27.20;46.60;;;;;;4859299;29;20513;-84
2022/05/07 09:19:30;;;;;;;16.87;14.73;;;27.10;46.30;;;;;;4858304;29;20490;-81
2022/05/07 09:22:09;;;;;;;17.40;14.90;;;26.90;46.50;;;;;;4859744;29;20700;-83
2022/05/07 09:24:39;;;;;;;16.87;15.17;;;27.00;46.50;;;;;;4845558;29;20466;-82
2022/05/07 09:27:06;;;;;;;17.23;15.57;;;26.70;46.70;;;;;;4851209;29;20450;-83
2022/05/07 09:29:33;;;;;;;16.43;14.73;;;26.90;46.90;;;;;;4836718;29;20471;-85
2022/05/07 09:32:11;;;;;;;15.73;14.23;;;27.40;46.20;;;;;;4854613;29;20462;-83
2022/05/07 09:37:36;;;;;;;15.80;14.13;;;27.50;45.90;;;;;;4837553;29;20888;-84
2022/05/07 09:40:08;;;;;;;17.17;15.53;;;27.70;45.20;;;;;;4838892;29;20455;-83
2022/05/07 09:42:35;;;;;;;16.30;14.67;;;27.60;45.50;;;;;;4840235;29;20486;-84
2022/05/07 09:45:03;;;;;;;15.87;14.37;;;27.80;45.50;;;;;;4846572;29;20448;-83
2022/05/07 09:47:31;;;;;;;16.80;15.10;;;27.80;44.90;;;;;;4846604;29;20458;-84
2022/05/07 09:58:19;;;;;;;19.37;13.70;;;28.70;43.00;;;;;;4834461;29;20871;-84
2022/05/07 10:01:11;;;;;;;17.13;15.33;;;28.50;43.50;;;;;;4847866;29;20466;-84
2022/05/07 10:03:56;;;;;;;17.57;13.60;;;28.70;42.90;;;;;;4856400;29;20582;-83
2022/05/07 10:06:45;;;;;;;15.43;13.83;;;28.60;42.70;;;;;;4855514;29;20466;-86
2022/05/07 10:09:40;;;;;;;16.17;13.43;;;28.90;42.50;;;;;;4859335;29;20547;-83
2022/05/07 10:12:08;;;;;;;14.90;13.30;;;28.50;42.40;;;;;;4851856;29;20466;-85
2022/05/07 10:14:35;;;;;;;13.77;12.40;;;28.20;42.60;;;;;;4855375;29;20462;-84
2022/05/07 10:17:08;;;;;;;12.77;11.50;;;28.40;42.80;;;;;;4852343;29;20986;-82
2022/05/07 10:19:39;;;;;;;14.13;12.63;;;29.00;42.90;;;;;;4846790;29;20486;-86
2022/05/07 10:22:21;;;;;;;15.73;14.00;;;29.00;43.30;;;;;;4837636;29;20472;-84
2022/05/07 10:25:07;;;;;;;15.07;13.40;;;29.00;41.50;;;;;;4838683;29;20475;-84
2022/05/07 10:27:43;;;;;;;14.80;12.43;;;28.80;41.70;;;;;;4853718;29;20518;-83
2022/05/07 10:30:21;;;;;;;15.03;13.43;;;28.70;41.90;;;;;;4836041;29;20466;-84
2022/05/07 10:33:02;;;;;;;13.67;11.83;;;28.60;41.80;;;;;;4845104;29;20488;-84
2022/05/07 10:35:39;;;;;;;15.70;14.10;;;30.10;40.00;;;;;;4852523;29;20461;-84
2022/05/07 10:38:11;;;;;;;14.90;13.50;;;30.70;38.80;;;;;;4831395;29;20447;-84
2022/05/07 10:41:08;;;;;;;14.50;13.00;;;30.70;38.60;;;;;;4832945;29;20451;-83
2022/05/07 10:43:40;;;;;;;15.27;13.67;;;30.70;38.70;;;;;;4812921;29;20482;-83
2022/05/07 10:46:12;;;;;;;17.60;15.57;;;30.60;38.50;;;;;;4851244;29;20517;-83
2022/05/07 10:48:43;;;;;;;15.53;14.00;;;30.50;38.00;;;;;;4848582;29;20554;-84
2022/05/07 10:51:39;;;;;;;14.77;13.30;;;30.30;38.20;;;;;;4846550;29;20478;-84
2022/05/07 10:54:24;;;;;;;15.70;14.20;;;30.00;39.10;;;;;;4844911;29;20543;-83
2022/05/07 10:56:56;;;;;;;15.93;14.43;;;29.60;39.50;;;;;;4846905;29;20553;-84
2022/05/07 10:59:25;;;;;;;14.77;13.47;;;29.40;40.20;;;;;;4833121;29;20490;-84
2022/05/07 11:02:02;;;;;;;16.77;15.23;;;29.70;40.40;;;;;;4842957;29;20474;-85
2022/05/07 11:04:29;;;;;;;17.77;15.23;;;29.60;39.40;;;;;;4840951;29;20469;-82
2022/05/07 11:06:57;;;;;;;16.87;15.33;;;29.90;39.10;;;;;;4847859;29;20477;-82
2022/05/07 11:09:25;;;;;;;15.23;13.83;;;29.40;38.90;;;;;;4850552;29;20484;-83
2022/05/07 11:11:56;;;;;;;15.90;14.40;;;30.00;38.80;;;;;;4855508;29;20472;-83
2022/05/07 11:14:26;;;;;;;15.57;14.20;;;30.20;38.90;;;;;;4847034;29;20543;-84
2022/05/07 11:16:55;;;;;;;15.87;14.37;;;30.10;38.30;;;;;;4838905;29;20470;-84
2022/05/07 11:19:34;;;;;;;16.17;14.67;;;30.20;37.90;;;;;;4842996;29;20483;-83
2022/05/07 11:22:03;;;;;;;15.90;14.30;;;30.40;37.70;;;;;;4842712;29;20455;-82
2022/05/07 11:24:32;;;;;;;16.17;14.60;;;29.90;38.60;;;;;;4859296;29;20484;-85
2022/05/07 11:27:11;;;;;;;16.80;15.20;;;29.90;38.20;;;;;;4856961;29;20458;-82
2022/05/07 11:29:41;;;;;;;15.30;13.80;;;29.90;37.90;;;;;;4867378;29;20446;-86
2022/05/07 11:32:11;;;;;;;14.23;13.00;;;29.90;37.80;;;;;;4856911;29;20468;-85
2022/05/07 11:34:41;;;;;;;17.07;14.80;;;29.80;37.90;;;;;;4867776;29;20462;-85
2022/05/07 11:37:19;;;;;;;17.07;15.50;;;29.10;38.10;;;;;;4867543;29;20441;-82
2022/05/07 11:39:59;;;;;;;15.03;13.60;;;28.60;38.80;;;;;;4864553;29;21060;-83
2022/05/07 11:42:33;;;;;;;15.60;14.13;;;27.50;40.10;;;;;;4846087;29;20485;-83
2022/05/07 11:45:27;;;;;;;15.70;14.20;;;27.40;40.70;;;;;;4845990;29;20834;-84
2022/05/07 11:48:13;;;;;;;15.50;14.00;;;27.80;40.80;;;;;;4855873;29;20453;-83
2022/05/07 11:50:52;;;;;;;16.10;14.50;;;28.30;41.00;;;;;;4845609;29;20523;-85
2022/05/07 11:53:21;;;;;;;15.67;14.10;;;28.00;40.90;;;;;;4844831;29;20489;-82
2022/05/07 11:55:49;;;;;;;15.53;14.23;;;28.30;40.60;;;;;;4849999;29;20454;-83
2022/05/07 11:58:20;;;;;;;14.63;12.70;;;28.20;39.90;;;;;;4843065;29;20465;-84
2022/05/07 12:00:55;;;;;;;12.90;11.70;;;28.00;40.50;;;;;;4848985;29;20472;-84
2022/05/07 12:03:27;;;;;;;16.30;14.47;;;28.30;40.30;;;;;;4860068;29;20486;-84
2022/05/07 12:05:55;;;;;;;15.90;14.20;;;28.60;39.40;;;;;;4838689;29;20541;-84
2022/05/07 12:08:29;;;;;;;14.63;12.50;;;28.40;39.70;;;;;;4849543;29;20541;-85
2022/05/07 12:10:56;;;;;;;16.23;14.53;;;29.40;39.10;;;;;;4845180;29;20454;-84
2022/05/07 12:13:25;;;;;;;15.33;13.83;;;29.90;38.40;;;;;;4865995;29;20504;-85
2022/05/07 12:18:41;;;;;;;15.60;14.10;;;30.00;37.60;;;;;;4853439;29;20568;-83
2022/05/07 12:21:08;;;;;;;18.13;14.90;;;29.50;37.70;;;;;;4859822;29;20454;-82
2022/05/07 12:31:49;;;;;;;13.20;11.90;;;28.00;40.00;;;;;;4854374;29;20438;-84
2022/05/07 12:34:17;;;;;;;17.03;13.27;;;28.20;40.20;;;;;;4865956;29;20481;-85
2022/05/07 12:36:44;;;;;;;13.73;12.40;;;28.80;38.90;;;;;;4865471;29;20470;-87
2022/05/07 12:39:11;;;;;;;12.40;11.20;;;28.70;38.90;;;;;;4862079;29;20483;-86
2022/05/07 12:41:42;;;;;;;12.70;11.33;;;29.20;38.30;;;;;;4858957;29;20533;-83
2022/05/07 12:44:09;;;;;;;14.10;11.07;;;29.50;37.40;;;;;;4855409;29;20485;-82
2022/05/07 12:46:36;;;;;;;12.20;11.00;;;29.30;37.50;;;;;;4855193;29;20539;-84
2022/05/07 12:49:02;;;;;;;12.27;11.00;;;28.90;37.80;;;;;;4859544;29;20557;-85
2022/05/07 12:51:29;;;;;;;12.60;11.40;;;28.60;38.50;;;;;;4863199;29;20534;-83
2022/05/07 12:53:56;;;;;;;11.30;10.20;;;28.50;38.50;;;;;;4852132;29;20470;-84
2022/05/07 12:56:23;;;;;;;12.87;11.77;;;28.00;39.00;;;;;;4843121;29;20450;-87
2022/05/07 12:58:50;;;;;;;11.60;10.60;;;27.40;40.40;;;;;;4846048;29;20507;-85
2022/05/07 13:01:17;;;;;;;15.97;12.80;;;26.90;41.80;;;;;;4852889;29;20459;-84
2022/05/07 13:03:44;;;;;;;15.03;12.03;;;26.90;42.10;;;;;;4845218;29;20537;-84
2022/05/07 13:06:11;;;;;;;14.30;12.97;;;26.90;42.50;;;;;;4842266;29;20480;-84
2022/05/07 13:08:38;;;;;;;14.47;13.17;;;27.10;42.90;;;;;;4859499;29;20463;-84
2022/05/07 13:11:05;;;;;;;13.73;12.23;;;26.90;42.60;;;;;;4843152;29;20446;-84
2022/05/07 13:13:32;;;;;;;16.20;12.77;;;26.80;43.20;;;;;;4860575;29;20486;-84
2022/05/07 13:15:59;;;;;;;13.53;12.23;;;26.70;43.90;;;;;;4846791;29;20553;-84
2022/05/07 13:18:26;;;;;;;14.23;12.80;;;26.30;44.80;;;;;;4845067;29;20447;-86
2022/05/07 13:20:55;;;;;;;14.77;13.00;;;26.10;45.70;;;;;;4861182;29;20509;-85
2022/05/07 13:23:22;;;;;;;14.00;12.30;;;26.00;45.90;;;;;;4861980;29;20470;-84